Time;durP1;ratioP1;P1;durP2;ratioP2;P2;SDS_P1;SDS_P2;PMS_P1;PMS_P2;Temp;Humidity;BMP_temperature;BMP_pressure;BME280_temperature;BME280_humidity;BME280_pressure;Samples;Min_cycle;Max_cycle;Signal;HPM_P1;HPM_P2
2024/01/06 00:00:06;;;;;;;;;;;;;6.10;95533.00;;;;5095282;28;19920;-87
2024/01/06 00:02:55;;;;;;;;;;;;;5.60;95532.00;;;;5094939;28;20373;-87
2024/01/06 00:05:44;;;;;;;;;;;;;5.20;95520.00;;;;5096459;28;19924;-88
2024/01/06 00:08:33;;;;;;;;;;;;;5.80;95529.00;;;;5096886;28;19928;-88
2024/01/06 00:11:23;;;;;;;;;;;;;5.80;95526.00;;;;5098164;28;19935;-88
2024/01/06 00:14:12;;;;;;;;;;;;;6.10;95534.00;;;;5093009;28;19927;-88
2024/01/06 00:17:01;;;;;;;;;;;;;6.20;95533.00;;;;5097273;28;20131;-88
2024/01/06 00:19:51;;;;;;;;;;;;;6.10;95541.00;;;;5094192;28;19924;-88
2024/01/06 00:22:41;;;;;;;;;;;;;5.90;95534.00;;;;5092365;28;20149;-87
2024/01/06 00:25:30;;;;;;;;;;;;;5.80;95529.00;;;;5098270;28;20317;-88
2024/01/06 00:28:20;;;;;;;;;;;;;6.10;95530.00;;;;5095159;28;19920;-88
2024/01/06 00:31:09;;;;;;;;;;;;;6.20;95530.00;;;;5095118;28;19920;-87
2024/01/06 00:33:58;;;;;;;;;;;;;6.30;95520.00;;;;5085342;28;19927;-88
2024/01/06 00:36:47;;;;;;;;;;;;;6.30;95526.00;;;;5089059;28;19998;-88
2024/01/06 00:39:36;;;;;;;;;;;;;5.90;95527.00;;;;5091393;28;20005;-88
2024/01/06 00:42:25;;;;;;;;;;;;;5.80;95520.00;;;;5095518;28;20393;-88
2024/01/06 00:45:15;;;;;;;9.55;3.00;;;;;6.00;95522.00;;;;5089876;28;20653;-89
2024/01/06 00:48:05;;;;;;;16.50;5.05;;;;;6.20;95527.00;;;;5089189;28;20168;-89
2024/01/06 00:50:54;;;;;;;33.57;10.10;;;;;6.20;95520.00;;;;5085759;28;20420;-88
2024/01/06 00:53:44;;;;;;;10.93;3.43;;;;;6.30;95518.00;;;;5093780;28;20568;-88
2024/01/06 00:56:33;;;;;;;11.03;3.47;;;;;6.20;95526.00;;;;5091186;28;20229;-88
2024/01/06 00:59:22;;;;;;;11.97;3.73;;;;;6.00;95523.00;;;;5096880;28;20587;-88
2024/01/06 01:02:13;;;;;;;40.53;12.50;;;;;6.20;95513.00;;;;5095499;28;20218;-87
2024/01/06 01:05:02;;;;;;;12.20;3.73;;;;;5.80;95518.00;;;;5094038;28;20211;-89
2024/01/06 01:07:52;;;;;;;10.53;3.33;;;;;5.90;95512.00;;;;5094958;28;20195;-87
2024/01/06 01:10:41;;;;;;;3.70;1.33;;;;;6.20;95512.00;;;;5088415;28;20196;-88
2024/01/06 01:13:30;;;;;;;10.97;3.37;;;;;6.00;95507.00;;;;5095720;28;20203;-90
2024/01/06 01:16:19;;;;;;;12.90;4.00;;;;;5.90;95499.00;;;;5098215;28;20225;-87
2024/01/06 01:19:10;;;;;;;10.47;3.33;;;;;6.10;95506.00;;;;5100154;28;20207;-88
2024/01/06 01:21:59;;;;;;;11.43;3.57;;;;;6.20;95501.00;;;;5086699;28;20196;-88
2024/01/06 01:24:48;;;;;;;4.33;1.57;;;;;6.30;95502.00;;;;5090377;28;20267;-88
2024/01/06 01:27:37;;;;;;;11.43;3.57;;;;;6.30;95496.00;;;;5097951;28;20207;-88
2024/01/06 01:30:27;;;;;;;11.20;3.43;;;;;6.40;95504.00;;;;5099383;28;20240;-88
2024/01/06 01:33:17;;;;;;;22.77;6.73;;;;;6.50;95500.00;;;;5095419;28;20252;-88
2024/01/06 01:36:07;;;;;;;16.60;4.93;;;;;6.50;95496.00;;;;5097728;28;20222;-88
2024/01/06 01:38:57;;;;;;;10.90;3.43;;;;;6.60;95486.00;;;;5093589;28;20203;-88
2024/01/06 01:41:46;;;;;;;9.57;2.97;;;;;6.60;95493.00;;;;5098886;28;20199;-87
2024/01/06 01:44:35;;;;;;;9.80;3.13;;;;;6.50;95480.00;;;;5088607;28;20226;-88
2024/01/06 01:47:24;;;;;;;5.57;1.87;;;;;6.50;95490.00;;;;5102724;28;20613;-89
2024/01/06 01:50:14;;;;;;;15.10;4.70;;;;;6.30;95477.00;;;;5093732;28;20203;-87
2024/01/06 01:53:05;;;;;;;22.53;6.67;;;;;5.90;95475.00;;;;5093507;28;20195;-88
2024/01/06 01:55:55;;;;;;;9.20;2.83;;;;;5.90;95464.00;;;;5097679;28;20226;-88
2024/01/06 01:58:44;;;;;;;3.90;1.50;;;;;6.20;95471.00;;;;5094164;28;20206;-88
2024/01/06 02:01:33;;;;;;;12.37;3.73;;;;;6.50;95465.00;;;;5091697;28;20204;-89
2024/01/06 02:04:22;;;;;;;10.23;3.23;;;;;6.50;95469.00;;;;5094096;28;20228;-88
2024/01/06 02:07:11;;;;;;;21.77;6.43;;;;;6.70;95466.00;;;;5093755;28;20207;-88
2024/01/06 02:10:02;;;;;;;17.10;5.20;;;;;6.60;95461.00;;;;5085674;28;20204;-88
2024/01/06 02:12:52;;;;;;;10.95;3.55;;;;;6.70;95449.00;;;;5103194;28;20203;-89
2024/01/06 02:15:41;;;;;;;10.40;3.40;;;;;6.10;95453.00;;;;5111751;28;20268;-89
2024/01/06 02:18:30;;;;;;;25.10;7.60;;;;;5.90;95437.00;;;;5091106;28;20204;-90
2024/01/06 02:21:19;;;;;;;;;;;;;6.50;95445.00;;;;5089552;28;20228;-89
2024/01/06 02:24:10;;;;;;;22.73;6.53;;;;;6.10;95440.00;;;;5093125;28;20335;-88
2024/01/06 02:26:59;;;;;;;13.80;4.13;;;;;6.30;95426.00;;;;5089300;28;20225;-89
2024/01/06 02:29:48;;;;;;;10.30;3.30;;;;;6.60;95442.00;;;;5088562;28;20226;-88
2024/01/06 02:32:38;;;;;;;9.57;3.07;;;;;6.40;95440.00;;;;5086970;28;20192;-88
2024/01/06 02:35:27;;;;;;;10.90;3.43;;;;;6.60;95434.00;;;;5091382;28;20215;-88
2024/01/06 02:38:16;;;;;;;11.77;3.73;;;;;6.60;95423.00;;;;5094651;28;20214;-89
2024/01/06 02:41:07;;;;;;;23.77;7.10;;;;;6.60;95418.00;;;;5095299;28;20208;-89
2024/01/06 02:43:56;;;;;;;13.30;4.07;;;;;6.10;95420.00;;;;5088327;28;20200;-90
2024/01/06 02:46:45;;;;;;;4.73;1.83;;;;;6.20;95412.00;;;;5087142;28;20235;-89
2024/01/06 02:49:34;;;;;;;5.40;2.13;;;;;6.60;95397.00;;;;5096875;28;20203;-88
2024/01/06 02:52:24;;;;;;;13.17;4.10;;;;;6.60;95406.00;;;;5091456;28;20195;-89
2024/01/06 02:55:13;;;;;;;15.17;4.90;;;;;6.10;95401.00;;;;5096068;28;20597;-88
2024/01/06 02:58:04;;;;;;;23.00;7.07;;;;;6.00;95403.00;;;;5095087;28;20207;-89
2024/01/06 03:00:53;;;;;;;11.33;3.70;;;;;6.60;95403.00;;;;5088877;28;20196;-88
2024/01/06 03:03:42;;;;;;;9.37;3.40;;;;;6.70;95412.00;;;;5086819;28;20200;-88
2024/01/06 03:06:31;;;;;;;11.07;3.87;;;;;6.80;95399.00;;;;5086961;28;20222;-88
2024/01/06 03:09:21;;;;;;;12.00;4.27;;;;;6.70;95410.00;;;;5080814;28;20203;-89
2024/01/06 03:12:10;;;;;;;14.20;4.77;;;;;6.30;95395.00;;;;5091874;28;20410;-89
2024/01/06 03:15:00;;;;;;;13.70;4.87;;;;;6.20;95386.00;;;;5093930;28;20202;-88
2024/01/06 03:17:50;;;;;;;32.20;10.83;;;;;6.40;95391.00;;;;5088477;28;20207;-88
2024/01/06 03:20:39;;;;;;;5.87;3.07;;;;;6.50;95401.00;;;;5087486;28;20196;-88
2024/01/06 03:23:28;;;;;;;11.23;4.37;;;;;6.60;95401.00;;;;5094846;28;20218;-89
2024/01/06 03:26:19;;;;;;;10.57;4.40;;;;;6.70;95396.00;;;;5087777;28;20723;-88
2024/01/06 03:29:08;;;;;;;19.30;7.00;;;;;6.60;95393.00;;;;5095485;28;20203;-88
2024/01/06 03:31:59;;;;;;;5.07;3.27;;;;;6.70;95404.00;;;;5092131;28;20199;-89
2024/01/06 03:34:48;;;;;;;11.83;5.07;;;;;6.80;95398.00;;;;5094519;28;20198;-88
2024/01/06 03:37:37;;;;;;;12.00;5.47;;;;;6.80;95402.00;;;;5097166;28;20203;-89
2024/01/06 03:40:26;;;;;;;14.13;6.03;;;;;6.90;95402.00;;;;5087347;28;20841;-88
2024/01/06 03:43:15;;;;;;;19.23;7.50;;;;;6.90;95403.00;;;;5089130;28;20215;-89
2024/01/06 03:46:06;;;;;;;13.17;6.63;;;;;7.00;95408.00;;;;5095236;28;20246;-90
2024/01/06 03:48:56;;;;;;;13.30;5.30;;;;;7.00;95400.00;;;;5086862;28;20200;-89
2024/01/06 03:51:45;;;;;;;9.45;3.45;;;;;6.90;95395.00;;;;5087081;28;20188;-88
2024/01/06 03:54:35;;;;;;;9.90;3.87;;;;;6.80;95391.00;;;;5094045;28;20259;-90
2024/01/06 03:57:24;;;;;;;14.37;5.00;;;;;6.90;95397.00;;;;5088000;28;20195;-89
2024/01/06 04:00:14;;;;;;;19.30;6.53;;;;;7.00;95401.00;;;;5087940;28;20207;-88
2024/01/06 04:03:03;;;;;;;21.23;7.40;;;;;6.70;95404.00;;;;5088233;28;20200;-89
2024/01/06 04:05:53;;;;;;;13.83;5.23;;;;;6.10;95405.00;;;;5090832;28;20230;-88
2024/01/06 04:08:43;;;;;;;4.47;2.77;;;;;6.30;95409.00;;;;5093986;28;20607;-88
2024/01/06 04:11:32;;;;;;;11.03;4.23;;;;;6.50;95403.00;;;;5102030;28;20203;-88
2024/01/06 04:14:21;;;;;;;11.93;4.70;;;;;6.40;95408.00;;;;5098204;28;20220;-88
2024/01/06 04:17:10;;;;;;;19.20;7.03;;;;;6.80;95404.00;;;;5099124;28;20218;-87
2024/01/06 04:19:59;;;;;;;16.50;6.17;;;;;6.80;95409.00;;;;5090248;28;20230;-89
2024/01/06 04:22:50;;;;;;;12.70;5.17;;;;;6.80;95416.00;;;;5088557;28;20205;-87
2024/01/06 04:25:39;;;;;;;9.30;3.13;;;;;6.70;95414.00;;;;5093443;28;20227;-88
2024/01/06 04:28:28;;;;;;;16.93;5.30;;;;;6.60;95406.00;;;;5097022;28;20207;-88
2024/01/06 04:31:17;;;;;;;13.53;4.27;;;;;6.50;95408.00;;;;5099007;28;20215;-89
2024/01/06 04:34:07;;;;;;;22.03;6.73;;;;;6.40;95405.00;;;;5095459;28;20217;-88
2024/01/06 04:36:56;;;;;;;7.20;2.50;;;;;6.30;95415.00;;;;5094997;28;20219;-88
2024/01/06 04:39:47;;;;;;;9.93;3.43;;;;;6.40;95424.00;;;;5094293;28;20203;-88
2024/01/06 04:42:36;;;;;;;9.93;3.23;;;;;6.70;95414.00;;;;5098674;28;20213;-89
2024/01/06 04:45:25;;;;;;;6.17;2.33;;;;;6.90;95426.00;;;;5093819;28;20246;-88
2024/01/06 04:48:14;;;;;;;33.30;10.13;;;;;6.90;95422.00;;;;5089677;28;20203;-87
2024/01/06 04:51:04;;;;;;;20.17;6.23;;;;;7.00;95419.00;;;;5095723;28;20207;-89
2024/01/06 04:53:53;;;;;;;10.80;3.50;;;;;7.00;95428.00;;;;5085906;28;20682;-87
2024/01/06 04:56:44;;;;;;;11.07;3.57;;;;;6.80;95415.00;;;;5093822;28;20215;-88
2024/01/06 04:59:33;;;;;;;13.73;4.53;;;;;6.50;95428.00;;;;5090089;28;20679;-87
2024/01/06 05:02:22;;;;;;;13.10;4.15;;;;;6.60;95417.00;;;;5094650;28;20203;-90
2024/01/06 05:05:11;;;;;;;;;;;;;6.80;95420.00;;;;5093721;28;19924;-89
2024/01/06 05:08:00;;;;;;;;;;;;;7.00;95416.00;;;;5092569;28;20002;-89
2024/01/06 05:10:49;;;;;;;;;;;;;7.00;95422.00;;;;5087654;28;20468;-87
2024/01/06 05:13:39;;;;;;;;;;;;;7.00;95421.00;;;;5094924;28;19924;-89
2024/01/06 05:16:28;;;;;;;;;;;;;7.00;95418.00;;;;5092351;28;19938;-87
2024/01/06 05:19:20;;;;;;;;;;;;;7.00;95423.00;;;;5091433;28;19927;-87
2024/01/06 05:22:09;;;;;;;;;;;;;6.90;95423.00;;;;5087218;28;19926;-89
2024/01/06 05:24:57;;;;;;;;;;;;;6.90;95421.00;;;;5095162;28;19920;-87
2024/01/06 05:27:46;;;;;;;;;;;;;7.00;95426.00;;;;5094758;28;20285;-88
2024/01/06 05:30:37;;;;;;;;;;;;;7.00;95429.00;;;;5087092;28;19920;-88
2024/01/06 05:33:26;;;;;;;;;;;;;6.90;95428.00;;;;5093745;28;20399;-87
2024/01/06 05:36:15;;;;;;;;;;;;;6.90;95426.00;;;;5092115;28;20496;-87
2024/01/06 05:39:04;;;;;;;;;;;;;6.80;95420.00;;;;5089699;28;19927;-89
2024/01/06 05:41:53;;;;;;;;;;;;;6.90;95419.00;;;;5093189;28;19920;-88
2024/01/06 05:44:42;;;;;;;;;;;;;6.90;95417.00;;;;5097702;28;20086;-89
2024/01/06 05:47:33;;;;;;;;;;;;;7.00;95433.00;;;;5100917;28;19924;-89
2024/01/06 05:50:22;;;;;;;;;;;;;7.10;95434.00;;;;5093883;28;19923;-88
2024/01/06 05:53:11;;;;;;;;;;;;;6.70;95433.00;;;;5099081;28;19920;-88
2024/01/06 05:56:00;;;;;;;;;;;;;6.60;95431.00;;;;5100120;28;19924;-89
2024/01/06 05:58:48;;;;;;;;;;;;;6.60;95428.00;;;;5099230;28;19920;-88
2024/01/06 06:01:37;;;;;;;;;;;;;6.90;95423.00;;;;5100223;28;19925;-88
2024/01/06 06:04:28;;;;;;;;;;;;;6.90;95425.00;;;;5091011;28;20777;-87
2024/01/06 06:07:17;;;;;;;;;;;;;6.90;95434.00;;;;5087930;28;19928;-88
2024/01/06 06:10:07;;;;;;;;;;;;;6.60;95441.00;;;;5092434;28;19920;-87
2024/01/06 06:12:56;;;;;;;;;;;;;6.30;95432.00;;;;5093504;28;19955;-88
2024/01/06 06:15:45;;;;;;;;;;;;;6.40;95437.00;;;;5098639;28;19921;-87
2024/01/06 06:18:35;;;;;;;;;;;;;6.60;95445.00;;;;5104534;28;19920;-88
2024/01/06 06:21:26;;;;;;;;;;;;;6.70;95436.00;;;;5105984;28;19927;-88
2024/01/06 06:24:15;;;;;;;;;;;;;6.90;95435.00;;;;5100121;28;19940;-87
2024/01/06 06:27:04;;;;;;;;;;;;;7.00;95439.00;;;;5097206;28;19920;-88
2024/01/06 06:29:53;;;;;;;;;;;;;7.00;95436.00;;;;5099132;28;20546;-88
2024/01/06 06:32:42;;;;;;;;;;;;;7.00;95433.00;;;;5098006;27;19924;-88
2024/01/06 06:35:31;;;;;;;;;;;;;7.00;95430.00;;;;5102253;28;19927;-88
2024/01/06 06:38:21;;;;;;;;;;;;;7.00;95434.00;;;;5092182;28;19928;-89
2024/01/06 06:41:10;;;;;;;;;;;;;6.60;95425.00;;;;5099504;28;20385;-87
2024/01/06 06:43:59;;;;;;;;;;;;;6.30;95424.00;;;;5101363;28;19928;-88
2024/01/06 06:46:48;;;;;;;;;;;;;6.40;95419.00;;;;5097426;28;19931;-88
2024/01/06 06:49:37;;;;;;;;;;;;;6.50;95423.00;;;;5094227;28;19920;-88
2024/01/06 06:52:26;;;;;;;;;;;;;6.50;95430.00;;;;5092366;28;19924;-88
2024/01/06 06:55:16;;;;;;;;;;;;;6.70;95427.00;;;;5100224;28;19920;-87
2024/01/06 06:58:06;;;;;;;;;;;;;6.80;95425.00;;;;5095677;28;19919;-88
2024/01/06 07:00:55;;;;;;;;;;;;;6.70;95424.00;;;;5091733;28;19998;-88
2024/01/06 07:03:44;;;;;;;;;;;;;6.70;95420.00;;;;5092225;28;19920;-89
2024/01/06 07:06:34;;;;;;;;;;;;;6.90;95425.00;;;;5081292;28;19920;-89
2024/01/06 07:09:24;;;;;;;;;;;;;7.00;95423.00;;;;5088787;28;19921;-88
2024/01/06 07:12:15;;;;;;;;;;;;;7.00;95427.00;;;;5095762;28;19928;-88
2024/01/06 07:15:04;;;;;;;;;;;;;6.80;95428.00;;;;5094439;28;19919;-90
2024/01/06 07:17:54;;;;;;;;;;;;;6.70;95430.00;;;;5100873;28;20008;-88
2024/01/06 07:20:43;;;;;;;;;;;;;6.60;95427.00;;;;5095866;28;19926;-88
2024/01/06 07:23:32;;;;;;;;;;;;;6.60;95442.00;;;;5103153;28;19935;-89
2024/01/06 07:26:21;;;;;;;;;;;;;6.70;95433.00;;;;5095193;28;19931;-87
2024/01/06 07:29:12;;;;;;;;;;;;;6.70;95445.00;;;;5106074;28;19940;-88
2024/01/06 07:32:00;;;;;;;;;;;;;6.80;95432.00;;;;5101332;28;19931;-89
2024/01/06 07:34:50;;;;;;;;;;;;;6.80;95436.00;;;;5096873;28;19924;-87
2024/01/06 07:37:39;;;;;;;;;;;;;7.00;95448.00;;;;5102061;28;19928;-87
2024/01/06 07:40:28;;;;;;;;;;;;;7.10;95448.00;;;;5103514;28;19932;-87
2024/01/06 07:43:17;;;;;;;;;;;;;7.10;95454.00;;;;5101366;28;19920;-87
2024/01/06 07:46:09;;;;;;;;;;;;;7.20;95445.00;;;;5101190;28;19920;-89
2024/01/06 07:48:58;;;;;;;;;;;;;7.10;95442.00;;;;5097748;28;19920;-87
2024/01/06 07:51:47;;;;;;;;;;;;;7.20;95452.00;;;;5089240;28;19946;-88
2024/01/06 07:54:36;;;;;;;;;;;;;7.00;95447.00;;;;5097852;28;19928;-87
2024/01/06 07:57:25;;;;;;;;;;;;;6.90;95441.00;;;;5096589;27;19924;-88
2024/01/06 08:00:16;;;;;;;;;;;;;7.00;95431.00;;;;5083979;28;19928;-86
2024/01/06 08:03:08;;;;;;;;;;;;;7.10;95439.00;;;;5091688;28;19934;-88
2024/01/06 08:05:57;;;;;;;;;;;;;7.00;95435.00;;;;5094502;28;19928;-89
2024/01/06 08:08:46;;;;;;;;;;;;;6.90;95433.00;;;;5097266;28;19920;-87
2024/01/06 08:11:35;;;;;;;;;;;;;6.90;95436.00;;;;5097523;28;19927;-89
2024/01/06 08:14:24;;;;;;;;;;;;;7.20;95434.00;;;;5096793;28;19935;-89
2024/01/06 08:17:13;;;;;;;;;;;;;7.40;95442.00;;;;5101449;28;20100;-88
2024/01/06 08:20:05;;;;;;;;;;;;;7.20;95447.00;;;;5096845;28;19928;-89
2024/01/06 08:22:54;;;;;;;;;;;;;7.20;95451.00;;;;5100507;28;19920;-87
2024/01/06 08:25:45;;;;;;;;;;;;;7.30;95448.00;;;;5093196;28;19920;-87
2024/01/06 08:28:34;;;;;;;;;;;;;7.40;95439.00;;;;5092628;28;19922;-87
2024/01/06 08:31:24;;;;;;;;;;;;;7.40;95444.00;;;;5105974;28;19927;-89
2024/01/06 08:34:13;;;;;;;;;;;;;7.40;95445.00;;;;5098572;28;19970;-88
2024/01/06 08:37:03;;;;;;;;;;;;;7.10;95447.00;;;;5097302;28;20560;-88
2024/01/06 08:39:52;;;;;;;;;;;;;7.10;95449.00;;;;5091436;28;19931;-88
2024/01/06 08:42:43;;;;;;;;;;;;;7.10;95453.00;;;;5096059;28;19924;-87
2024/01/06 08:45:32;;;;;;;;;;;;;7.30;95459.00;;;;5102768;28;19924;-88
2024/01/06 08:48:22;;;;;;;;;;;;;7.40;95467.00;;;;5093793;28;19928;-88
2024/01/06 08:51:11;;;;;;;;;;;;;7.30;95467.00;;;;5099368;28;19920;-87
2024/01/06 08:54:03;;;;;;;;;;;;;7.10;95464.00;;;;5097285;28;19920;-88
2024/01/06 08:56:52;;;;;;;;;;;;;7.20;95473.00;;;;5098500;28;19931;-88
2024/01/06 08:59:41;;;;;;;;;;;;;7.50;95464.00;;;;5094575;28;19924;-87
2024/01/06 09:02:30;;;;;;;;;;;;;7.50;95468.00;;;;5093656;28;19920;-88
2024/01/06 09:05:19;;;;;;;;;;;;;7.50;95478.00;;;;5098175;28;20374;-88
2024/01/06 09:08:08;;;;;;;;;;;;;7.50;95472.00;;;;5095011;28;19930;-88
2024/01/06 09:10:58;;;;;;;;;;;;;7.60;95482.00;;;;5098972;28;19927;-87
2024/01/06 09:13:47;;;;;;;;;;;;;7.50;95482.00;;;;5098179;28;19924;-88
2024/01/06 09:16:36;;;;;;;;;;;;;7.40;95487.00;;;;5097069;28;19928;-90
2024/01/06 09:19:28;;;;;;;;;;;;;7.70;95485.00;;;;5093541;28;20297;-87
2024/01/06 09:22:17;;;;;;;;;;;;;7.70;95482.00;;;;5087472;28;20396;-88
2024/01/06 09:25:06;;;;;;;;;;;;;7.60;95487.00;;;;5089123;28;19924;-87
2024/01/06 09:27:57;;;;;;;;;;;;;7.60;95477.00;;;;5085935;28;19927;-86
2024/01/06 09:30:46;;;;;;;;;;;;;7.60;95483.00;;;;5093637;28;19926;-87
2024/01/06 09:33:35;;;;;;;;;;;;;7.60;95478.00;;;;5093377;28;19920;-87
2024/01/06 09:36:24;;;;;;;;;;;;;7.50;95477.00;;;;5089248;28;19924;-87
2024/01/06 09:39:13;;;;;;;;;;;;;7.60;95469.00;;;;5088123;28;19931;-87
2024/01/06 09:42:02;;;;;;;;;;;;;7.70;95481.00;;;;5088274;28;19935;-89
2024/01/06 09:44:52;;;;;;;;;;;;;7.50;95475.00;;;;5080273;28;19942;-88
2024/01/06 09:47:41;;;;;;;;;;;;;7.60;95477.00;;;;5084312;28;19920;-87
2024/01/06 09:50:30;;;;;;;;;;;;;7.60;95472.00;;;;5081154;28;19920;-88
2024/01/06 09:53:19;;;;;;;;;;;;;7.50;95477.00;;;;5080228;28;20377;-87
2024/01/06 09:56:08;;;;;;;;;;;;;7.70;95479.00;;;;5078850;28;19928;-89
2024/01/06 09:58:57;;;;;;;;;;;;;7.70;95469.00;;;;5085107;28;19939;-87
2024/01/06 10:01:49;;;;;;;;;;;;;7.80;95475.00;;;;5088788;28;19924;-87
2024/01/06 10:04:38;;;;;;;;;;;;;7.80;95474.00;;;;5090734;28;19966;-87
2024/01/06 10:07:27;;;;;;;;;;;;;8.00;95478.00;;;;5087881;28;19988;-87
2024/01/06 10:10:16;;;;;;;;;;;;;8.00;95465.00;;;;5080416;28;20376;-87
2024/01/06 10:13:06;;;;;;;;;;;;;8.10;95469.00;;;;5091706;28;20373;-87
2024/01/06 10:15:55;;;;;;;;;;;;;8.10;95475.00;;;;5086346;28;19988;-87
2024/01/06 10:18:45;;;;;;;;;;;;;8.20;95477.00;;;;5092951;28;19923;-87
2024/01/06 10:21:38;;;;;;;;;;;;;8.20;95470.00;;;;5094118;28;19935;-87
2024/01/06 10:24:27;;;;;;;;;;;;;8.30;95470.00;;;;5085575;28;20014;-87
2024/01/06 10:27:16;;;;;;;;;;;;;8.00;95471.00;;;;5083565;28;19943;-88
2024/01/06 10:30:06;;;;;;;;;;;;;7.90;95465.00;;;;5088059;28;19920;-87
2024/01/06 10:32:55;;;;;;;;;;;;;7.80;95466.00;;;;5086999;28;19919;-87
2024/01/06 10:35:44;;;;;;;;;;;;;7.70;95467.00;;;;5087257;28;19927;-86
2024/01/06 10:38:35;;;;;;;;;;;;;7.60;95465.00;;;;5086206;28;20427;-88
2024/01/06 10:41:25;;;;;;;;;;;;;7.70;95463.00;;;;5078248;28;19930;-86
2024/01/06 10:44:14;;;;;;;;;;;;;7.90;95463.00;;;;5075429;28;19919;-88
2024/01/06 10:47:03;;;;;;;;;;;;;7.80;95460.00;;;;5079443;28;19923;-91
2024/01/06 10:49:54;;;;;;;;;;;;;7.60;95454.00;;;;5080071;28;20011;-87
2024/01/06 10:52:44;;;;;;;;;;;;;7.60;95440.00;;;;5083289;28;19949;-87
2024/01/06 10:55:35;;;;;;;;;;;;;7.60;95436.00;;;;5077821;28;20294;-87
2024/01/06 10:58:24;;;;;;;;;;;;;7.40;95445.00;;;;5088665;28;19939;-87
2024/01/06 11:01:13;;;;;;;27.63;10.67;;;;;7.40;95435.00;;;;5090609;28;19944;-87
2024/01/06 11:04:06;;;;;;;18.40;7.67;;;;;7.30;95422.00;;;;5084165;28;20268;-91
2024/01/06 11:06:56;;;;;;;8.67;4.40;;;;;7.10;95422.00;;;;5082782;28;20298;-87
2024/01/06 11:09:50;;;;;;;14.97;6.40;;;;;7.30;95426.00;;;;5087251;28;20616;-86
2024/01/06 11:12:41;;;;;;;11.70;4.90;;;;;7.20;95426.00;;;;5090053;28;20196;-86
2024/01/06 11:15:44;;;;;;;13.47;6.43;;;;;7.30;95431.00;;;;5081718;28;20255;-88
2024/01/06 11:18:34;;;;;;;;;;;;;7.30;95431.00;;;;5082555;28;20273;-86
2024/01/06 11:21:24;;;;;;;;;;;;;7.70;95432.00;;;;5087252;28;20107;-87
2024/01/06 11:24:20;;;;;;;;;;;;;7.40;95419.00;;;;5090639;28;19984;-86
2024/01/06 11:27:09;;;;;;;;;;;;;7.30;95424.00;;;;5104394;28;19927;-85
2024/01/06 11:30:01;;;;;;;;;;;;;7.20;95411.00;;;;5102977;28;19935;-88
2024/01/06 11:32:50;;;;;;;;;;;;;7.40;95415.00;;;;5099245;28;19921;-87
2024/01/06 11:35:40;;;;;;;;;;;;;7.30;95411.00;;;;5103076;28;19924;-88
2024/01/06 11:38:29;;;;;;;;;;;;;7.20;95414.00;;;;5101458;28;20302;-89
2024/01/06 11:41:33;;;;;;;;;;;;;7.40;95408.00;;;;5096869;28;19930;-87
2024/01/06 11:44:22;;;;;;;;;;;;;7.40;95407.00;;;;5083607;28;19943;-89
2024/01/06 11:47:12;;;;;;;;;;;;;7.80;95414.00;;;;5095656;28;19920;-88
2024/01/06 11:50:04;;;;;;;;;;;;;7.60;95418.00;;;;5105921;28;19919;-87
2024/01/06 11:52:53;;;;;;;;;;;;;7.40;95412.00;;;;5095802;28;19924;-87
2024/01/06 11:55:42;;;;;;;;;;;;;7.50;95408.00;;;;5088873;28;19920;-87
2024/01/06 11:58:33;;;;;;;;;;;;;7.50;95409.00;;;;5088453;28;19920;-87
2024/01/06 12:01:22;;;;;;;;;;;;;7.40;95408.00;;;;5095318;28;19919;-87
2024/01/06 12:04:12;;;;;;;;;;;;;7.50;95401.00;;;;5086077;28;20429;-89
2024/01/06 12:07:07;;;;;;;;;;;;;7.40;95396.00;;;;5084723;28;20343;-88
2024/01/06 12:10:01;;;;;;;;;;;;;7.30;95402.00;;;;5084502;28;19927;-87
2024/01/06 12:12:58;;;;;;;;;;;;;7.40;95403.00;;;;5080578;28;20003;-87
2024/01/06 12:15:47;;;;;;;;;;;;;7.40;95408.00;;;;5086221;28;19920;-88
2024/01/06 12:18:36;;;;;;;;;;;;;7.40;95398.00;;;;5088654;28;20403;-88
2024/01/06 12:21:26;;;;;;;;;;;;;7.30;95405.00;;;;5083980;28;19928;-88
2024/01/06 12:24:20;;;;;;;;;;;;;7.40;95409.00;;;;5070010;28;20323;-88
2024/01/06 12:27:10;;;;;;;;;;;;;7.50;95404.00;;;;5067871;28;19932;-89
2024/01/06 12:30:00;;;;;;;;;;;;;7.80;95398.00;;;;5069155;28;19927;-89
2024/01/06 12:32:49;;;;;;;;;;;;;7.50;95391.00;;;;5069686;28;19957;-89
2024/01/06 12:35:38;;;;;;;;;;;;;7.90;95405.00;;;;5069361;28;20450;-88
2024/01/06 12:38:29;;;;;;;;;;;;;8.00;95394.00;;;;5075478;28;19927;-88
2024/01/06 12:41:18;;;;;;;;;;;;;8.20;95398.00;;;;5078544;28;19920;-89
2024/01/06 12:44:07;;;;;;;;;;;;;8.20;95399.00;;;;5077449;28;19927;-88
2024/01/06 12:46:56;;;;;;;;;;;;;8.30;95404.00;;;;5074555;28;19943;-87
2024/01/06 12:49:45;;;;;;;;;;;;;8.50;95403.00;;;;5079826;28;20407;-88
2024/01/06 12:52:35;;;;;;;;;;;;;8.30;95411.00;;;;5082152;28;19924;-87
2024/01/06 12:55:25;;;;;;;;;;;;;8.30;95402.00;;;;5083723;28;19924;-88
2024/01/06 12:58:14;;;;;;;;;;;;;8.60;95405.00;;;;5080494;28;20006;-88
2024/01/06 13:01:03;;;;;;;;;;;;;8.60;95416.00;;;;5083624;28;20297;-88
2024/01/06 13:03:53;;;;;;;;;;;;;8.70;95416.00;;;;5078757;28;19919;-88
2024/01/06 13:06:42;;;;;;;;;;;;;8.70;95409.00;;;;5076490;28;20344;-88
2024/01/06 13:09:32;;;;;;;;;;;;;8.70;95419.00;;;;5077093;28;19927;-90
2024/01/06 13:12:23;;;;;;;;;;;;;8.70;95404.00;;;;5079381;28;19931;-88
2024/01/06 13:15:12;;;;;;;;;;;;;8.50;95419.00;;;;5076187;28;19920;-88
2024/01/06 13:18:01;;;;;;;;;;;;;8.70;95422.00;;;;5080236;28;20422;-89
2024/01/06 13:20:50;;;;;;;;;;;;;8.70;95425.00;;;;5077154;28;20289;-88
2024/01/06 13:23:40;;;;;;;;;;;;;8.70;95442.00;;;;5076231;28;19920;-88
2024/01/06 13:26:29;;;;;;;;;;;;;8.70;95443.00;;;;5086438;28;19925;-88
2024/01/06 13:29:19;;;;;;;;;;;;;8.60;95438.00;;;;5074369;28;19924;-90
2024/01/06 13:32:10;;;;;;;;;;;;;8.60;95439.00;;;;5073800;28;19934;-88
2024/01/06 13:35:04;;;;;;;;;;;;;8.60;95438.00;;;;5072724;28;19951;-89
2024/01/06 13:37:53;;;;;;;;;;;;;8.50;95451.00;;;;5074688;28;19969;-89
2024/01/06 13:40:42;;;;;;;;;;;;;8.40;95434.00;;;;5075555;28;19919;-90
2024/01/06 13:43:31;;;;;;;;;;;;;8.40;95445.00;;;;5079489;28;19919;-88
2024/01/06 13:46:22;;;;;;;15.10;5.90;;;;;8.30;95448.00;;;;5088493;28;19919;-89
2024/01/06 13:49:11;;;;;;;23.20;8.10;;;;;8.30;95437.00;;;;5080886;28;20203;-89
2024/01/06 13:52:01;;;;;;;9.10;3.85;;;;;8.30;95454.00;;;;5078621;28;20196;-89
2024/01/06 13:54:50;;;;;;;40.07;12.97;;;;;8.20;95444.00;;;;5078826;28;20271;-89
2024/01/06 13:57:41;;;;;;;10.67;4.27;;;;;8.30;95444.00;;;;5081500;28;20211;-89
2024/01/06 14:00:30;;;;;;;13.20;5.03;;;;;8.30;95449.00;;;;5077508;28;20202;-89
2024/01/06 14:03:22;;;;;;;19.85;6.95;;;;;8.30;95462.00;;;;5086498;28;20621;-89
2024/01/06 14:06:11;;;;;;;14.57;5.43;;;;;8.30;95449.00;;;;5073178;28;20228;-90
2024/01/06 14:09:01;;;;;;;11.17;4.40;;;;;8.30;95459.00;;;;5077991;28;20198;-89
2024/01/06 14:11:50;;;;;;;8.87;3.60;;;;;8.00;95461.00;;;;5076330;28;20215;-89
2024/01/06 14:14:41;;;;;;;10.83;4.20;;;;;8.30;95467.00;;;;5082986;28;20201;-89
2024/01/06 14:17:30;;;;;;;11.60;4.70;;;;;8.40;95474.00;;;;5086553;28;20203;-88
2024/01/06 14:20:21;;;;;;;12.50;5.07;;;;;8.20;95466.00;;;;5090931;28;20203;-89
2024/01/06 14:23:11;;;;;;;48.10;16.00;;;;;8.20;95468.00;;;;5087814;28;20294;-89
2024/01/06 14:26:00;;;;;;;12.27;4.73;;;;;8.00;95473.00;;;;5088177;28;20218;-89
2024/01/06 14:28:49;;;;;;;11.10;4.90;;;;;8.00;95473.00;;;;5094674;28;20375;-89
2024/01/06 14:31:39;;;;;;;10.40;5.00;;;;;8.20;95483.00;;;;5083211;28;20266;-88
2024/01/06 14:34:28;;;;;;;9.80;4.00;;;;;8.00;95478.00;;;;5092770;28;20586;-88
2024/01/06 14:37:18;;;;;;;15.50;6.20;;;;;8.10;95482.00;;;;5092008;28;20202;-89
2024/01/06 14:40:09;;;;;;;42.60;14.60;;;;;8.00;95472.00;;;;5083291;28;20214;-89
2024/01/06 14:43:02;;;;;;;13.50;5.05;;;;;8.10;95484.00;;;;5088636;28;20168;-89
2024/01/06 14:45:51;;;;;;;;;;;;;7.90;95490.00;;;;5080953;28;20219;-89
2024/01/06 14:48:40;;;;;;;11.27;4.70;;;;;8.00;95481.00;;;;5087096;28;20188;-89
2024/01/06 14:51:29;;;;;;;8.60;3.80;;;;;8.00;95484.00;;;;5091911;28;20235;-88
2024/01/06 14:54:20;;;;;;;12.40;4.60;;;;;8.10;95491.00;;;;5085912;28;20496;-89
2024/01/06 14:57:09;;;;;;;;;;;;;8.00;95475.00;;;;5082978;28;25092;-89
2024/01/06 14:59:58;;;;;;;11.33;4.63;;;;;7.80;95477.00;;;;5089686;28;20161;-90
2024/01/06 15:02:48;;;;;;;6.53;3.50;;;;;7.90;95493.00;;;;5074527;28;20192;-89
2024/01/06 15:05:38;;;;;;;6.00;3.13;;;;;7.80;95487.00;;;;5088740;28;20218;-89
2024/01/06 15:08:27;;;;;;;9.07;4.07;;;;;7.90;95500.00;;;;5084041;28;20203;-89
2024/01/06 15:11:18;;;;;;;20.30;7.23;;;;;7.70;95491.00;;;;5086196;28;20219;-89